sensor_id;sensor_type;location;lat;lon;timestamp;pressure;altitude;pressure_sealevel;temperature;humidity
45541;BME280;31265;49.680;8.608;2022-10-16T00:00:07;100351.03;;;14.89;100.00
45541;BME280;31265;49.680;8.608;2022-10-16T00:02:35;100345.59;;;14.81;100.00
45541;BME280;31265;49.680;8.608;2022-10-16T00:05:04;100341.97;;;14.69;100.00
45541;BME280;31265;49.680;8.608;2022-10-16T00:07:34;100344.13;;;14.71;100.00
45541;BME280;31265;49.680;8.608;2022-10-16T00:10:03;100340.31;;;14.66;100.00
45541;BME280;31265;49.680;8.608;2022-10-16T00:12:32;100340.22;;;14.64;100.00
45541;BME280;31265;49.680;8.608;2022-10-16T00:15:00;100344.31;;;14.63;100.00
45541;BME280;31265;49.680;8.608;2022-10-16T00:17:30;100352.38;;;14.69;100.00
45541;BME280;31265;49.680;8.608;2022-10-16T00:20:00;100343.59;;;14.62;100.00
45541;BME280;31265;49.680;8.608;2022-10-16T00:22:29;100337.84;;;14.60;100.00
45541;BME280;31265;49.680;8.608;2022-10-16T00:24:59;100348.44;;;14.62;100.00
45541;BME280;31265;49.680;8.608;2022-10-16T00:27:27;100355.94;;;14.59;100.00
45541;BME280;31265;49.680;8.608;2022-10-16T00:29:55;100353.28;;;14.61;100.00
45541;BME280;31265;49.680;8.608;2022-10-16T00:32:24;100340.63;;;14.60;100.00
45541;BME280;31265;49.680;8.608;2022-10-16T00:34:55;100347.41;;;14.57;100.00
45541;BME280;31265;49.680;8.608;2022-10-16T00:37:23;100333.44;;;14.57;100.00
45541;BME280;31265;49.680;8.608;2022-10-16T00:39:51;100341.25;;;14.59;100.00
45541;BME280;31265;49.680;8.608;2022-10-16T00:42:22;100341.09;;;14.57;100.00
45541;BME280;31265;49.680;8.608;2022-10-16T00:44:54;100350.06;;;14.55;100.00
45541;BME280;31265;49.680;8.608;2022-10-16T00:47:26;100340.94;;;14.55;100.00
45541;BME280;31265;49.680;8.608;2022-10-16T00:50:00;100336.09;;;14.55;100.00
45541;BME280;31265;49.680;8.608;2022-10-16T00:52:30;100341.09;;;14.57;100.00
45541;BME280;31265;49.680;8.608;2022-10-16T00:55:00;100340.38;;;14.56;100.00
45541;BME280;31265;49.680;8.608;2022-10-16T00:57:31;100343.28;;;14.58;100.00
45541;BME280;31265;49.680;8.608;2022-10-16T01:00:02;100355.22;;;14.59;100.00
45541;BME280;31265;49.680;8.608;2022-10-16T01:02:32;100349.03;;;14.60;100.00
45541;BME280;31265;49.680;8.608;2022-10-16T01:05:04;100350.50;;;14.61;100.00
45541;BME280;31265;49.680;8.608;2022-10-16T01:07:41;100349.16;;;14.62;100.00
45541;BME280;31265;49.680;8.608;2022-10-16T01:10:21;100339.59;;;14.66;100.00
45541;BME280;31265;49.680;8.608;2022-10-16T01:12:57;100349.47;;;14.67;100.00
45541;BME280;31265;49.680;8.608;2022-10-16T01:15:30;100369.13;;;14.69;100.00
45541;BME280;31265;49.680;8.608;2022-10-16T01:18:04;100366.63;;;14.73;100.00
45541;BME280;31265;49.680;8.608;2022-10-16T01:20:37;100370.91;;;14.74;100.00
45541;BME280;31265;49.680;8.608;2022-10-16T01:23:15;100369.00;;;14.76;100.00
45541;BME280;31265;49.680;8.608;2022-10-16T01:26:18;100368.22;;;14.76;100.00
45541;BME280;31265;49.680;8.608;2022-10-16T01:28:52;100363.41;;;14.76;100.00
45541;BME280;31265;49.680;8.608;2022-10-16T01:31:25;100362.66;;;14.76;100.00
45541;BME280;31265;49.680;8.608;2022-10-16T01:34:00;100362.78;;;14.78;100.00
45541;BME280;31265;49.680;8.608;2022-10-16T01:36:37;100360.72;;;14.78;100.00
45541;BME280;31265;49.680;8.608;2022-10-16T01:39:09;100351.63;;;14.78;100.00
45541;BME280;31265;49.680;8.608;2022-10-16T01:41:43;100354.72;;;14.82;100.00
45541;BME280;31265;49.680;8.608;2022-10-16T01:44:16;100372.06;;;14.80;100.00
45541;BME280;31265;49.680;8.608;2022-10-16T01:46:48;100378.97;;;14.79;100.00
45541;BME280;31265;49.680;8.608;2022-10-16T01:49:20;100379.84;;;14.82;100.00
45541;BME280;31265;49.680;8.608;2022-10-16T01:51:52;100398.22;;;14.85;100.00
45541;BME280;31265;49.680;8.608;2022-10-16T01:54:23;100396.16;;;14.86;100.00
45541;BME280;31265;49.680;8.608;2022-10-16T01:56:55;100394.13;;;14.86;100.00
45541;BME280;31265;49.680;8.608;2022-10-16T01:59:29;100380.25;;;14.88;100.00
45541;BME280;31265;49.680;8.608;2022-10-16T02:02:00;100373.94;;;14.88;100.00
45541;BME280;31265;49.680;8.608;2022-10-16T02:04:32;100366.19;;;14.86;100.00
45541;BME280;31265;49.680;8.608;2022-10-16T02:07:01;100365.88;;;14.82;100.00
45541;BME280;31265;49.680;8.608;2022-10-16T02:09:31;100366.19;;;14.86;100.00
45541;BME280;31265;49.680;8.608;2022-10-16T02:12:03;100378.25;;;14.79;100.00
45541;BME280;31265;49.680;8.608;2022-10-16T02:14:38;100377.94;;;14.75;100.00
45541;BME280;31265;49.680;8.608;2022-10-16T02:17:12;100363.25;;;14.74;100.00
45541;BME280;31265;49.680;8.608;2022-10-16T02:19:41;100360.91;;;14.71;100.00
45541;BME280;31265;49.680;8.608;2022-10-16T02:22:14;100360.63;;;14.67;100.00
45541;BME280;31265;49.680;8.608;2022-10-16T02:24:51;100353.56;;;14.66;100.00
45541;BME280;31265;49.680;8.608;2022-10-16T02:27:26;100353.56;;;14.66;100.00
45541;BME280;31265;49.680;8.608;2022-10-16T02:30:03;100359.88;;;14.66;100.00
45541;BME280;31265;49.680;8.608;2022-10-16T02:32:37;100373.72;;;14.64;100.00
45541;BME280;31265;49.680;8.608;2022-10-16T02:35:08;100367.38;;;14.63;100.00
45541;BME280;31265;49.680;8.608;2022-10-16T02:37:36;100377.81;;;14.63;100.00
45541;BME280;31265;49.680;8.608;2022-10-16T02:40:08;100370.16;;;14.63;100.00
45541;BME280;31265;49.680;8.608;2022-10-16T02:42:37;100376.19;;;14.70;100.00
45541;BME280;31265;49.680;8.608;2022-10-16T02:45:09;100362.81;;;14.68;100.00
45541;BME280;31265;49.680;8.608;2022-10-16T02:47:38;100379.56;;;14.68;100.00
45541;BME280;31265;49.680;8.608;2022-10-16T02:50:09;100379.72;;;14.70;100.00
45541;BME280;31265;49.680;8.608;2022-10-16T02:52:37;100375.75;;;14.73;100.00
45541;BME280;31265;49.680;8.608;2022-10-16T02:55:06;100369.56;;;14.75;100.00
45541;BME280;31265;49.680;8.608;2022-10-16T02:57:34;100366.78;;;14.75;100.00
45541;BME280;31265;49.680;8.608;2022-10-16T03:00:04;100377.94;;;14.75;100.00
45541;BME280;31265;49.680;8.608;2022-10-16T03:02:35;100381.47;;;14.75;100.00
45541;BME280;31265;49.680;8.608;2022-10-16T03:05:04;100387.06;;;14.75;100.00
45541;BME280;31265;49.680;8.608;2022-10-16T03:07:33;100393.38;;;14.76;100.00
45541;BME280;31265;49.680;8.608;2022-10-16T03:10:01;100389.41;;;14.79;100.00
45541;BME280;31265;49.680;8.608;2022-10-16T03:12:30;100376.91;;;14.80;100.00
45541;BME280;31265;49.680;8.608;2022-10-16T03:14:58;100380.44;;;14.80;100.00
45541;BME280;31265;49.680;8.608;2022-10-16T03:17:27;100390.88;;;14.80;100.00
45541;BME280;31265;49.680;8.608;2022-10-16T03:19:58;100381.03;;;14.79;100.00
45541;BME280;31265;49.680;8.608;2022-10-16T03:22:27;100390.88;;;14.80;100.00
45541;BME280;31265;49.680;8.608;2022-10-16T03:24:55;100380.44;;;14.80;100.00
45541;BME280;31265;49.680;8.608;2022-10-16T03:27:23;100389.53;;;14.81;100.00
45541;BME280;31265;49.680;8.608;2022-10-16T03:29:54;100393.66;;;14.80;100.00
45541;BME280;31265;49.680;8.608;2022-10-16T03:32:22;100392.31;;;14.81;100.00
45541;BME280;31265;49.680;8.608;2022-10-16T03:34:52;100393.66;;;14.80;100.00
45541;BME280;31265;49.680;8.608;2022-10-16T03:37:25;100402.03;;;14.80;100.00
45541;BME280;31265;49.680;8.608;2022-10-16T03:39:54;100402.03;;;14.80;100.00
45541;BME280;31265;49.680;8.608;2022-10-16T03:42:22;100402.19;;;14.82;100.00
45541;BME280;31265;49.680;8.608;2022-10-16T03:44:51;100393.97;;;14.84;100.00
45541;BME280;31265;49.680;8.608;2022-10-16T03:47:19;100407.16;;;14.83;100.00
45541;BME280;31265;49.680;8.608;2022-10-16T03:49:51;100412.75;;;14.83;100.00
45541;BME280;31265;49.680;8.608;2022-10-16T03:52:20;100408.66;;;14.84;100.00
45541;BME280;31265;49.680;8.608;2022-10-16T03:54:49;100405.28;;;14.86;100.00
45541;BME280;31265;49.680;8.608;2022-10-16T03:57:19;100413.50;;;14.84;100.00
45541;BME280;31265;49.680;8.608;2022-10-16T03:59:47;100407.94;;;14.84;100.00
45541;BME280;31265;49.680;8.608;2022-10-16T04:02:16;100412.75;;;14.83;100.00
45541;BME280;31265;49.680;8.608;2022-10-16T04:04:45;100411.31;;;14.82;100.00
45541;BME280;31265;49.680;8.608;2022-10-16T04:07:16;100413.38;;;14.82;100.00
45541;BME280;31265;49.680;8.608;2022-10-16T04:09:45;100412.63;;;14.81;100.00
45541;BME280;31265;49.680;8.608;2022-10-16T04:12:15;100406.19;;;14.79;100.00
45541;BME280;31265;49.680;8.608;2022-10-16T04:14:44;100418.66;;;14.78;100.00
45541;BME280;31265;49.680;8.608;2022-10-16T04:17:12;100420.72;;;14.77;100.00
45541;BME280;31265;49.680;8.608;2022-10-16T04:19:40;100419.25;;;14.76;100.00
45541;BME280;31265;49.680;8.608;2022-10-16T04:22:09;100401.47;;;14.72;100.00
45541;BME280;31265;49.680;8.608;2022-10-16T04:24:38;100404.84;;;14.70;100.00
45541;BME280;31265;49.680;8.608;2022-10-16T04:27:07;100420.72;;;14.68;100.00
45541;BME280;31265;49.680;8.608;2022-10-16T04:29:37;100423.22;;;14.63;100.00
45541;BME280;31265;49.680;8.608;2022-10-16T04:32:05;100419.13;;;14.65;100.00
45541;BME280;31265;49.680;8.608;2022-10-16T04:34:35;100401.63;;;14.64;100.00
45541;BME280;31265;49.680;8.608;2022-10-16T04:37:05;100398.53;;;14.60;100.00
45541;BME280;31265;49.680;8.608;2022-10-16T04:39:33;100421.47;;;14.58;100.00
45541;BME280;31265;49.680;8.608;2022-10-16T04:42:02;100429.56;;;14.64;100.00
45541;BME280;31265;49.680;8.608;2022-10-16T04:44:31;100439.69;;;14.69;100.00
45541;BME280;31265;49.680;8.608;2022-10-16T04:47:02;100439.09;;;14.71;100.00
45541;BME280;31265;49.680;8.608;2022-10-16T04:49:31;100424.41;;;14.70;100.00
45541;BME280;31265;49.680;8.608;2022-10-16T04:51:59;100435.56;;;14.70;100.00
45541;BME280;31265;49.680;8.608;2022-10-16T04:54:28;100428.69;;;14.71;100.00
45541;BME280;31265;49.680;8.608;2022-10-16T04:56:56;100421.75;;;14.72;100.00
45541;BME280;31265;49.680;8.608;2022-10-16T04:59:25;100414.25;;;14.65;100.00
45541;BME280;31265;49.680;8.608;2022-10-16T05:01:53;100414.72;;;14.61;100.00
45541;BME280;31265;49.680;8.608;2022-10-16T05:04:23;100417.06;;;14.55;100.00
45541;BME280;31265;49.680;8.608;2022-10-16T05:06:51;100418.06;;;14.50;100.00
45541;BME280;31265;49.680;8.608;2022-10-16T05:09:20;100398.81;;;14.45;100.00
45541;BME280;31265;49.680;8.608;2022-10-16T05:11:49;100413.06;;;14.39;100.00
45541;BME280;31265;49.680;8.608;2022-10-16T05:14:17;100417.03;;;14.36;100.00
45541;BME280;31265;49.680;8.608;2022-10-16T05:16:45;100402.94;;;14.34;100.00
45541;BME280;31265;49.680;8.608;2022-10-16T05:19:15;100410.56;;;14.33;100.00
45541;BME280;31265;49.680;8.608;2022-10-16T05:22:00;100412.78;;;14.35;100.00
45541;BME280;31265;49.680;8.608;2022-10-16T05:24:30;100407.06;;;14.33;100.00
45541;BME280;31265;49.680;8.608;2022-10-16T05:26:59;100418.78;;;14.31;100.00
45541;BME280;31265;49.680;8.608;2022-10-16T05:29:28;100422.19;;;14.30;100.00
45541;BME280;31265;49.680;8.608;2022-10-16T05:31:58;100415.56;;;14.25;100.00
45541;BME280;31265;49.680;8.608;2022-10-16T05:34:26;100405.44;;;14.20;100.00
45541;BME280;31265;49.680;8.608;2022-10-16T05:36:55;100408.94;;;14.20;100.00
45541;BME280;31265;49.680;8.608;2022-10-16T05:39:26;100421.00;;;14.23;100.00
45541;BME280;31265;49.680;8.608;2022-10-16T05:41:54;100429.06;;;14.29;100.00
45541;BME280;31265;49.680;8.608;2022-10-16T05:44:23;100436.13;;;14.30;100.00
45541;BME280;31265;49.680;8.608;2022-10-16T05:46:51;100438.31;;;14.31;100.00
45541;BME280;31265;49.680;8.608;2022-10-16T05:49:19;100444.06;;;14.33;100.00
45541;BME280;31265;49.680;8.608;2022-10-16T05:51:49;100440.53;;;14.33;100.00
45541;BME280;31265;49.680;8.608;2022-10-16T05:54:18;100446.44;;;14.37;100.00
45541;BME280;31265;49.680;8.608;2022-10-16T05:56:49;100449.34;;;14.39;100.00
45541;BME280;31265;49.680;8.608;2022-10-16T05:59:17;100463.47;;;14.41;100.00
45541;BME280;31265;49.680;8.608;2022-10-16T06:01:49;100465.66;;;14.43;100.00
45541;BME280;31265;49.680;8.608;2022-10-16T06:04:18;100472.13;;;14.45;100.00
45541;BME280;31265;49.680;8.608;2022-10-16T06:06:47;100468.00;;;14.46;100.00
45541;BME280;31265;49.680;8.608;2022-10-16T06:09:15;100463.75;;;14.45;100.00
45541;BME280;31265;49.680;8.608;2022-10-16T06:11:44;100474.94;;;14.45;100.00
45541;BME280;31265;49.680;8.608;2022-10-16T06:14:14;100484.91;;;14.48;100.00
45541;BME280;31265;49.680;8.608;2022-10-16T06:16:42;100485.06;;;14.50;100.00
45541;BME280;31265;49.680;8.608;2022-10-16T06:19:11;100496.97;;;14.51;100.00
45541;BME280;31265;49.680;8.608;2022-10-16T06:21:40;100499.03;;;14.50;100.00
45541;BME280;31265;49.680;8.608;2022-10-16T06:24:09;100499.91;;;14.53;100.00
45541;BME280;31265;49.680;8.608;2022-10-16T06:26:38;100504.19;;;14.54;100.00
45541;BME280;31265;49.680;8.608;2022-10-16T06:29:08;100512.72;;;14.56;100.00
45541;BME280;31265;49.680;8.608;2022-10-16T06:31:38;100512.31;;;14.59;100.00
45541;BME280;31265;49.680;8.608;2022-10-16T06:34:09;100503.78;;;14.57;100.00
45541;BME280;31265;49.680;8.608;2022-10-16T06:36:38;100508.91;;;14.61;100.00
45541;BME280;31265;49.680;8.608;2022-10-16T06:39:07;100509.22;;;14.65;100.00
45541;BME280;31265;49.680;8.608;2022-10-16T06:41:37;100507.16;;;14.66;100.00
45541;BME280;31265;49.680;8.608;2022-10-16T06:44:15;100505.38;;;14.70;100.00
45541;BME280;31265;49.680;8.608;2022-10-16T06:46:45;100509.06;;;14.73;100.00
45541;BME280;31265;49.680;8.608;2022-10-16T06:49:14;100514.81;;;14.75;100.00
45541;BME280;31265;49.680;8.608;2022-10-16T06:51:48;100521.72;;;14.74;100.00
45541;BME280;31265;49.680;8.608;2022-10-16T06:54:18;100532.59;;;14.79;100.00
45541;BME280;31265;49.680;8.608;2022-10-16T06:56:47;100523.03;;;14.92;100.00
45541;BME280;31265;49.680;8.608;2022-10-16T06:59:16;100528.47;;;15.10;100.00
45541;BME280;31265;49.680;8.608;2022-10-16T07:01:45;100526.06;;;15.25;100.00
45541;BME280;31265;49.680;8.608;2022-10-16T07:04:14;100535.47;;;15.40;100.00
45541;BME280;31265;49.680;8.608;2022-10-16T07:06:42;100525.16;;;15.42;100.00
45541;BME280;31265;49.680;8.608;2022-10-16T07:09:11;100523.88;;;15.34;100.00
45541;BME280;31265;49.680;8.608;2022-10-16T07:11:40;100523.56;;;15.39;100.00
45541;BME280;31265;49.680;8.608;2022-10-16T07:14:16;100529.16;;;15.39;100.00
45541;BME280;31265;49.680;8.608;2022-10-16T07:16:47;100539.88;;;15.43;100.00
45541;BME280;31265;49.680;8.608;2022-10-16T07:19:15;100549.75;;;15.44;100.00
45541;BME280;31265;49.680;8.608;2022-10-16T07:21:46;100542.97;;;15.47;100.00
45541;BME280;31265;49.680;8.608;2022-10-16T07:24:15;100553.72;;;15.51;100.00
45541;BME280;31265;49.680;8.608;2022-10-16T07:26:45;100547.50;;;15.52;100.00
45541;BME280;31265;49.680;8.608;2022-10-16T07:29:15;100557.66;;;15.57;100.00
45541;BME280;31265;49.680;8.608;2022-10-16T07:31:46;100554.28;;;15.59;100.00
45541;BME280;31265;49.680;8.608;2022-10-16T07:34:16;100558.25;;;15.65;100.00
45541;BME280;31265;49.680;8.608;2022-10-16T07:36:49;100565.44;;;15.78;100.00
45541;BME280;31265;49.680;8.608;2022-10-16T07:39:17;100571.72;;;15.88;100.00
45541;BME280;31265;49.680;8.608;2022-10-16T07:41:47;100576.00;;;15.80;100.00
45541;BME280;31265;49.680;8.608;2022-10-16T07:44:18;100566.47;;;15.83;100.00
45541;BME280;31265;49.680;8.608;2022-10-16T07:46:50;100567.47;;;15.87;100.00
45541;BME280;31265;49.680;8.608;2022-10-16T07:49:19;100571.88;;;15.90;100.00
45541;BME280;31265;49.680;8.608;2022-10-16T07:51:48;100574.53;;;15.88;100.00
45541;BME280;31265;49.680;8.608;2022-10-16T07:54:16;100575.88;;;15.87;100.00
45541;BME280;31265;49.680;8.608;2022-10-16T07:56:45;100569.97;;;15.83;100.00
45541;BME280;31265;49.680;8.608;2022-10-16T07:59:15;100578.81;;;15.80;100.00
45541;BME280;31265;49.680;8.608;2022-10-16T08:01:46;100579.09;;;15.84;100.00
45541;BME280;31265;49.680;8.608;2022-10-16T08:04:17;100573.81;;;15.88;100.00
45541;BME280;31265;49.680;8.608;2022-10-16T08:06:45;100574.81;;;15.93;100.00
45541;BME280;31265;49.680;8.608;2022-10-16T08:09:16;100588.03;;;16.02;100.00
45541;BME280;31265;49.680;8.608;2022-10-16T08:11:46;100600.91;;;16.17;100.00
45541;BME280;31265;49.680;8.608;2022-10-16T08:14:15;100600.06;;;16.14;100.00
45541;BME280;31265;49.680;8.608;2022-10-16T08:16:46;100601.06;;;16.19;100.00
45541;BME280;31265;49.680;8.608;2022-10-16T08:19:14;100603.72;;;16.17;100.00
45541;BME280;31265;49.680;8.608;2022-10-16T08:21:48;100604.19;;;16.13;100.00
45541;BME280;31265;49.680;8.608;2022-10-16T08:24:17;100607.72;;;16.13;100.00
45541;BME280;31265;49.680;8.608;2022-10-16T08:26:47;100609.66;;;16.11;100.00
45541;BME280;31265;49.680;8.608;2022-10-16T08:29:16;100617.75;;;16.07;100.00
45541;BME280;31265;49.680;8.608;2022-10-16T08:31:46;100625.00;;;16.00;100.00
45541;BME280;31265;49.680;8.608;2022-10-16T08:34:15;100622.50;;;15.95;100.00
45541;BME280;31265;49.680;8.608;2022-10-16T08:36:44;100637.09;;;15.93;100.00
45541;BME280;31265;49.680;8.608;2022-10-16T08:39:18;100638.00;;;15.86;100.00
45541;BME280;31265;49.680;8.608;2022-10-16T08:42:04;100662.31;;;15.83;100.00
45541;BME280;31265;49.680;8.608;2022-10-16T08:45:08;100684.84;;;15.85;100.00
45541;BME280;31265;49.680;8.608;2022-10-16T08:47:49;100719.00;;;15.74;100.00
45541;BME280;31265;49.680;8.608;2022-10-16T08:50:24;100714.88;;;15.65;100.00
45541;BME280;31265;49.680;8.608;2022-10-16T08:52:57;100685.56;;;15.57;100.00
45541;BME280;31265;49.680;8.608;2022-10-16T08:55:42;100684.53;;;15.52;100.00
45541;BME280;31265;49.680;8.608;2022-10-16T08:58:14;100676.00;;;15.50;100.00
45541;BME280;31265;49.680;8.608;2022-10-16T09:00:46;100682.19;;;15.48;100.00
45541;BME280;31265;49.680;8.608;2022-10-16T09:03:23;100682.78;;;15.47;100.00
45541;BME280;31265;49.680;8.608;2022-10-16T09:06:01;100695.13;;;15.54;100.00
45541;BME280;31265;49.680;8.608;2022-10-16T09:08:35;100702.91;;;15.65;100.00
45541;BME280;31265;49.680;8.608;2022-10-16T09:11:14;100705.00;;;15.84;100.00
45541;BME280;31265;49.680;8.608;2022-10-16T09:13:50;100717.34;;;16.10;100.00
45541;BME280;31265;49.680;8.608;2022-10-16T09:16:26;100711.66;;;16.29;100.00
45541;BME280;31265;49.680;8.608;2022-10-16T09:19:01;100715.03;;;16.47;100.00
45541;BME280;31265;49.680;8.608;2022-10-16T09:21:36;100712.19;;;16.57;100.00
45541;BME280;31265;49.680;8.608;2022-10-16T09:24:11;100721.00;;;16.63;100.00
45541;BME280;31265;49.680;8.608;2022-10-16T09:26:43;100725.66;;;16.80;100.00
45541;BME280;31265;49.680;8.608;2022-10-16T09:29:12;100711.56;;;16.59;100.00
45541;BME280;31265;49.680;8.608;2022-10-16T09:31:42;100702.53;;;16.70;100.00
45541;BME280;31265;49.680;8.608;2022-10-16T09:34:17;100705.00;;;16.75;100.00
45541;BME280;31265;49.680;8.608;2022-10-16T09:36:50;100706.59;;;16.88;100.00
45541;BME280;31265;49.680;8.608;2022-10-16T09:39:20;100705.75;;;17.29;100.00
45541;BME280;31265;49.680;8.608;2022-10-16T09:41:50;100699.66;;;17.32;100.00
45541;BME280;31265;49.680;8.608;2022-10-16T09:44:23;100702.28;;;17.18;100.00
45541;BME280;31265;49.680;8.608;2022-10-16T09:47:01;100693.44;;;17.55;100.00
45541;BME280;31265;49.680;8.608;2022-10-16T09:49:29;100693.06;;;17.49;100.00
45541;BME280;31265;49.680;8.608;2022-10-16T09:52:12;100696.13;;;17.32;100.00
45541;BME280;31265;49.680;8.608;2022-10-16T09:54:49;100703.00;;;17.40;100.00
45541;BME280;31265;49.680;8.608;2022-10-16T09:57:20;100709.25;;;17.72;100.00
45541;BME280;31265;49.680;8.608;2022-10-16T09:59:52;100715.50;;;17.82;100.00
45541;BME280;31265;49.680;8.608;2022-10-16T10:02:30;100713.97;;;17.91;100.00
45541;BME280;31265;49.680;8.608;2022-10-16T10:05:01;100704.41;;;18.18;100.00
45541;BME280;31265;49.680;8.608;2022-10-16T10:07:31;100712.81;;;18.30;100.00
45541;BME280;31265;49.680;8.608;2022-10-16T10:10:03;100711.34;;;18.17;100.00
45541;BME280;31265;49.680;8.608;2022-10-16T10:12:35;100712.34;;;18.33;100.00
45541;BME280;31265;49.680;8.608;2022-10-16T10:15:06;100714.06;;;18.38;100.00
45541;BME280;31265;49.680;8.608;2022-10-16T10:17:45;100714.56;;;18.58;100.00
45541;BME280;31265;49.680;8.608;2022-10-16T10:20:26;100719.47;;;18.58;100.00
45541;BME280;31265;49.680;8.608;2022-10-16T10:22:56;100713.00;;;18.67;100.00
45541;BME280;31265;49.680;8.608;2022-10-16T10:25:35;100715.66;;;18.53;100.00
45541;BME280;31265;49.680;8.608;2022-10-16T10:28:27;100718.72;;;18.57;100.00
45541;BME280;31265;49.680;8.608;2022-10-16T10:31:03;100708.47;;;18.85;100.00
45541;BME280;31265;49.680;8.608;2022-10-16T10:33:41;100708.44;;;18.74;100.00
45541;BME280;31265;49.680;8.608;2022-10-16T10:36:19;100711.41;;;18.87;100.00
45541;BME280;31265;49.680;8.608;2022-10-16T10:38:53;100710.66;;;18.75;100.00
45541;BME280;31265;49.680;8.608;2022-10-16T10:42:02;100708.59;;;18.99;100.00
45541;BME280;31265;49.680;8.608;2022-10-16T10:47:39;100709.53;;;19.53;100.00
45541;BME280;31265;49.680;8.608;2022-10-16T10:50:12;100710.22;;;19.65;100.00
45541;BME280;31265;49.680;8.608;2022-10-16T10:52:51;100708.34;;;19.82;100.00
45541;BME280;31265;49.680;8.608;2022-10-16T10:55:28;100702.59;;;19.80;100.00
45541;BME280;31265;49.680;8.608;2022-10-16T10:58:26;100694.44;;;19.72;100.00
45541;BME280;31265;49.680;8.608;2022-10-16T11:01:08;100700.44;;;19.66;100.00
45541;BME280;31265;49.680;8.608;2022-10-16T11:03:48;100699.03;;;19.53;100.00
45541;BME280;31265;49.680;8.608;2022-10-16T11:06:26;100692.44;;;19.49;100.00
45541;BME280;31265;49.680;8.608;2022-10-16T11:09:00;100688.84;;;19.48;100.00
45541;BME280;31265;49.680;8.608;2022-10-16T11:11:35;100684.00;;;19.49;100.00
45541;BME280;31265;49.680;8.608;2022-10-16T11:14:14;100683.31;;;19.62;100.00
45541;BME280;31265;49.680;8.608;2022-10-16T11:16:50;100679.47;;;19.95;100.00
45541;BME280;31265;49.680;8.608;2022-10-16T11:19:28;100690.72;;;20.21;100.00
45541;BME280;31265;49.680;8.608;2022-10-16T11:22:07;100691.75;;;20.13;100.00
45541;BME280;31265;49.680;8.608;2022-10-16T11:24:44;100687.97;;;20.09;100.00
45541;BME280;31265;49.680;8.608;2022-10-16T11:27:16;100693.09;;;20.12;100.00
45541;BME280;31265;49.680;8.608;2022-10-16T11:29:52;100695.22;;;20.26;100.00
45541;BME280;31265;49.680;8.608;2022-10-16T11:32:32;100698.75;;;20.26;100.00
45541;BME280;31265;49.680;8.608;2022-10-16T11:35:10;100697.47;;;20.55;100.00
45541;BME280;31265;49.680;8.608;2022-10-16T11:37:44;100701.44;;;20.64;100.00
45541;BME280;31265;49.680;8.608;2022-10-16T11:40:21;100704.16;;;20.61;100.00
45541;BME280;31265;49.680;8.608;2022-10-16T11:42:57;100699.66;;;20.98;100.00
45541;BME280;31265;49.680;8.608;2022-10-16T11:45:32;100698.50;;;21.03;100.00
45541;BME280;31265;49.680;8.608;2022-10-16T11:48:13;100694.44;;;21.50;100.00
45541;BME280;31265;49.680;8.608;2022-10-16T11:50:49;100695.88;;;21.80;100.00
45541;BME280;31265;49.680;8.608;2022-10-16T11:53:35;100692.66;;;22.02;100.00
45541;BME280;31265;49.680;8.608;2022-10-16T11:56:06;100691.41;;;22.37;100.00
45541;BME280;31265;49.680;8.608;2022-10-16T11:58:37;100696.41;;;22.54;100.00
45541;BME280;31265;49.680;8.608;2022-10-16T12:01:17;100699.53;;;22.60;100.00
45541;BME280;31265;49.680;8.608;2022-10-16T12:04:04;100690.50;;;22.32;100.00
45541;BME280;31265;49.680;8.608;2022-10-16T12:06:41;100678.84;;;21.48;100.00
45541;BME280;31265;49.680;8.608;2022-10-16T12:09:18;100679.97;;;21.41;100.00
45541;BME280;31265;49.680;8.608;2022-10-16T12:11:48;100681.50;;;21.31;100.00
45541;BME280;31265;49.680;8.608;2022-10-16T12:14:34;100674.44;;;21.16;100.00
45541;BME280;31265;49.680;8.608;2022-10-16T12:17:27;100677.06;;;21.12;100.00
45541;BME280;31265;49.680;8.608;2022-10-16T12:20:12;100680.56;;;21.26;100.00
45541;BME280;31265;49.680;8.608;2022-10-16T12:22:48;100684.13;;;21.70;100.00
45541;BME280;31265;49.680;8.608;2022-10-16T12:25:25;100678.91;;;21.64;100.00
45541;BME280;31265;49.680;8.608;2022-10-16T12:28:00;100688.94;;;21.67;100.00
45541;BME280;31265;49.680;8.608;2022-10-16T12:30:32;100683.06;;;21.47;100.00
45541;BME280;31265;49.680;8.608;2022-10-16T12:33:03;100683.59;;;21.30;100.00
45541;BME280;31265;49.680;8.608;2022-10-16T12:35:35;100675.03;;;21.42;100.00
45541;BME280;31265;49.680;8.608;2022-10-16T12:38:18;100676.31;;;21.11;100.00
45541;BME280;31265;49.680;8.608;2022-10-16T12:40:56;100672.22;;;21.28;100.00
45541;BME280;31265;49.680;8.608;2022-10-16T12:43:38;100683.28;;;21.24;100.00
45541;BME280;31265;49.680;8.608;2022-10-16T12:46:22;100676.41;;;21.27;100.00
45541;BME280;31265;49.680;8.608;2022-10-16T12:48:52;100681.00;;;21.20;100.00
45541;BME280;31265;49.680;8.608;2022-10-16T12:51:36;100668.41;;;21.08;100.00
45541;BME280;31265;49.680;8.608;2022-10-16T12:54:12;100672.88;;;21.13;100.00
45541;BME280;31265;49.680;8.608;2022-10-16T12:56:51;100679.22;;;21.27;100.00
45541;BME280;31265;49.680;8.608;2022-10-16T12:59:31;100675.34;;;21.34;100.00
45541;BME280;31265;49.680;8.608;2022-10-16T13:02:16;100672.41;;;21.32;100.00
45541;BME280;31265;49.680;8.608;2022-10-16T13:05:15;100689.28;;;21.16;100.00
45541;BME280;31265;49.680;8.608;2022-10-16T13:07:56;100679.00;;;21.37;100.00
45541;BME280;31265;49.680;8.608;2022-10-16T13:10:30;100674.13;;;21.53;100.00